Time;durP1;ratioP1;P1;durP2;ratioP2;P2;SDS_P1;SDS_P2;PMS_P1;PMS_P2;Temp;Humidity;BMP_temperature;BMP_pressure;BME280_temperature;BME280_humidity;BME280_pressure;Samples;Min_cycle;Max_cycle;Signal;HPM_P1;HPM_P2
2022/11/26 00:01:20;;;;;;;9.98;3.50;;;5.70;99.90;;;;;;5034741;28;20128;-70
2022/11/26 00:03:46;;;;;;;9.13;3.08;;;5.70;99.90;;;;;;5039089;28;20060;-70
2022/11/26 00:06:24;;;;;;;10.20;3.35;;;5.70;99.90;;;;;;5056832;28;20519;-70
2022/11/26 00:08:50;;;;;;;9.93;3.30;;;5.70;99.90;;;;;;5051246;28;20041;-70
2022/11/26 00:11:16;;;;;;;7.97;2.95;;;5.70;99.90;;;;;;5058055;28;20047;-70
2022/11/26 00:13:41;;;;;;;9.43;3.70;;;5.70;99.90;;;;;;5051748;28;20040;-70
2022/11/26 00:16:13;;;;;;;11.57;3.40;;;5.70;99.90;;;;;;5069735;28;20508;-70
2022/11/26 00:18:39;;;;;;;10.52;3.70;;;5.70;99.90;;;;;;5053141;28;20556;-70
2022/11/26 00:21:12;;;;;;;13.35;4.18;;;5.70;99.90;;;;;;5055261;28;20120;-70
2022/11/26 00:23:38;;;;;;;10.68;3.88;;;5.70;99.90;;;;;;5069665;28;20044;-70
2022/11/26 00:26:10;;;;;;;8.27;3.17;;;5.60;99.90;;;;;;5053407;28;20040;-70
2022/11/26 00:28:37;;;;;;;11.93;3.85;;;5.60;99.90;;;;;;5071878;28;20040;-70
2022/11/26 00:31:12;;;;;;;13.30;3.70;;;5.70;99.90;;;;;;5069240;28;20032;-70
2022/11/26 00:33:38;;;;;;;9.88;4.43;;;5.70;99.90;;;;;;5068588;28;20041;-70
2022/11/26 00:36:28;;;;;;;14.20;3.92;;;5.60;99.90;;;;;;5059249;28;20039;-70
2022/11/26 00:39:04;;;;;;;8.75;3.90;;;5.60;99.90;;;;;;5059188;28;20042;-70
2022/11/26 00:41:37;;;;;;;10.80;4.15;;;5.60;99.90;;;;;;5074786;28;20036;-70
2022/11/26 00:44:03;;;;;;;12.95;5.03;;;5.60;99.90;;;;;;5057592;28;20407;-70
2022/11/26 00:46:29;;;;;;;10.73;4.53;;;5.60;99.90;;;;;;5053842;28;20087;-70
2022/11/26 00:48:54;;;;;;;10.65;4.65;;;5.60;99.90;;;;;;5069067;28;20447;-70
2022/11/26 00:51:26;;;;;;;9.43;3.95;;;5.60;99.90;;;;;;5055366;28;20033;-70
2022/11/26 00:53:54;;;;;;;10.35;4.88;;;5.60;99.90;;;;;;5058821;28;20385;-70
2022/11/26 00:56:21;;;;;;;10.55;4.38;;;5.60;99.90;;;;;;5058836;28;20036;-70
2022/11/26 00:58:48;;;;;;;11.90;4.65;;;5.60;99.90;;;;;;5059072;28;20047;-70
2022/11/26 01:01:22;;;;;;;12.98;5.20;;;5.60;99.90;;;;;;5074505;28;20081;-70
2022/11/26 01:03:48;;;;;;;12.43;4.95;;;5.70;99.90;;;;;;5073699;28;20044;-70
2022/11/26 01:06:22;;;;;;;11.98;5.10;;;5.70;99.90;;;;;;5075311;28;20506;-70
2022/11/26 01:08:48;;;;;;;15.93;5.68;;;5.80;99.90;;;;;;5058692;28;20037;-70
2022/11/26 01:11:19;;;;;;;10.13;4.70;;;5.80;99.90;;;;;;5057432;28;20037;-70
2022/11/26 01:13:47;;;;;;;13.30;5.33;;;5.70;99.90;;;;;;5073907;28;20397;-70
2022/11/26 01:16:23;;;;;;;17.58;6.53;;;5.80;99.90;;;;;;5069387;28;20140;-70
2022/11/26 01:18:51;;;;;;;15.38;5.63;;;5.80;99.90;;;;;;5046886;28;20047;-70
2022/11/26 01:21:17;;;;;;;12.43;5.25;;;5.80;99.90;;;;;;5044060;28;20412;-70
2022/11/26 01:23:43;;;;;;;12.52;5.15;;;5.80;99.90;;;;;;5053871;28;20036;-70
2022/11/26 01:26:19;;;;;;;11.73;5.20;;;5.70;99.90;;;;;;5057685;28;20040;-70
2022/11/26 01:28:45;;;;;;;10.70;5.18;;;5.70;99.90;;;;;;5058246;28;20037;-70
2022/11/26 01:31:15;;;;;;;10.65;4.55;;;5.60;99.90;;;;;;5072956;28;20423;-70
2022/11/26 01:33:41;;;;;;;12.00;4.97;;;5.60;99.90;;;;;;5073368;28;20032;-70
2022/11/26 01:36:32;;;;;;;10.07;4.80;;;5.60;99.90;;;;;;5074731;28;20377;-70
2022/11/26 01:39:14;;;;;;;11.60;4.95;;;5.60;99.90;;;;;;5058035;28;20033;-70
2022/11/26 01:41:56;;;;;;;14.18;5.05;;;5.60;99.90;;;;;;5056960;28;20078;-70
2022/11/26 01:44:27;;;;;;;16.23;5.50;;;5.60;99.90;;;;;;5069860;28;20036;-70
2022/11/26 01:46:53;;;;;;;12.33;5.43;;;5.50;99.90;;;;;;5074880;28;20374;-70
2022/11/26 01:49:26;;;;;;;9.88;5.07;;;5.50;99.90;;;;;;5041185;28;20037;-70
2022/11/26 01:52:29;;;;;;;14.05;5.63;;;5.50;99.90;;;;;;5057865;28;20127;-70
2022/11/26 01:54:55;;;;;;;12.50;5.35;;;5.50;99.90;;;;;;5018760;28;20051;-70
2022/11/26 01:57:28;;;;;;;10.77;5.45;;;5.50;99.90;;;;;;5057898;28;20036;-70
2022/11/26 02:00:00;;;;;;;11.98;5.13;;;5.50;99.90;;;;;;5075698;28;20041;-70
2022/11/26 02:02:27;;;;;;;11.98;5.25;;;5.50;99.90;;;;;;5056280;28;20040;-70
2022/11/26 02:05:19;;;;;;;10.13;5.05;;;5.50;99.90;;;;;;5055897;28;20049;-70
2022/11/26 02:07:45;;;;;;;11.60;5.60;;;5.50;99.90;;;;;;5069357;28;20083;-70
2022/11/26 02:10:12;;;;;;;8.88;4.57;;;5.40;99.90;;;;;;5057304;28;20052;-70
2022/11/26 02:12:39;;;;;;;10.00;4.57;;;5.40;99.90;;;;;;5056267;28;20029;-70
2022/11/26 02:15:05;;;;;;;9.80;5.00;;;5.40;99.90;;;;;;5072634;28;20080;-71
2022/11/26 02:17:44;;;;;;;9.57;5.03;;;5.30;99.90;;;;;;5055594;28;20036;-70
2022/11/26 02:20:22;;;;;;;11.93;4.97;;;5.30;99.90;;;;;;5053954;28;20071;-71
2022/11/26 02:22:47;;;;;;;12.32;4.80;;;5.30;99.90;;;;;;5052733;28;20489;-70
2022/11/26 02:25:32;;;;;;;10.55;5.10;;;5.30;99.90;;;;;;5049035;28;20039;-70
2022/11/26 02:28:33;;;;;;;12.25;4.97;;;5.30;99.90;;;;;;5073929;28;20042;-70
2022/11/26 02:31:11;;;;;;;13.13;4.70;;;5.30;99.90;;;;;;5071384;28;20037;-70
2022/11/26 02:33:57;;;;;;;13.55;5.30;;;5.30;99.90;;;;;;5073916;28;20072;-70
2022/11/26 02:36:30;;;;;;;11.27;4.80;;;5.20;99.90;;;;;;5067270;28;20496;-70
2022/11/26 02:38:55;;;;;;;13.15;4.90;;;5.20;99.90;;;;;;5053312;28;20488;-70
2022/11/26 02:41:21;;;;;;;13.07;5.53;;;5.20;99.90;;;;;;5036069;28;20036;-70
2022/11/26 02:43:47;;;;;;;12.32;5.28;;;5.20;99.90;;;;;;5053087;28;20515;-70
2022/11/26 02:46:17;;;;;;;11.25;4.93;;;5.20;99.90;;;;;;5035824;28;20485;-70
2022/11/26 02:48:48;;;;;;;10.63;4.60;;;5.10;99.90;;;;;;5035528;28;20385;-70
2022/11/26 02:51:19;;;;;;;13.27;5.07;;;5.10;99.90;;;;;;5052663;28;20036;-70
2022/11/26 02:53:46;;;;;;;10.38;4.45;;;5.10;99.90;;;;;;5052538;28;20287;-70
2022/11/26 02:56:22;;;;;;;12.68;5.10;;;5.10;99.90;;;;;;5043850;28;20052;-70
2022/11/26 02:58:51;;;;;;;13.13;5.30;;;5.00;99.90;;;;;;5053232;28;20366;-70
2022/11/26 03:01:35;;;;;;;8.40;4.50;;;5.00;99.90;;;;;;5042330;28;20107;-70
2022/11/26 03:04:09;;;;;;;9.70;4.43;;;5.00;99.90;;;;;;5053096;28;20052;-70
2022/11/26 03:06:35;;;;;;;11.57;5.15;;;5.00;99.90;;;;;;5049515;28;20047;-70
2022/11/26 03:09:01;;;;;;;11.95;4.70;;;5.00;99.90;;;;;;5037251;28;20037;-70
2022/11/26 03:11:27;;;;;;;10.95;4.88;;;5.00;99.90;;;;;;5036344;28;20037;-70
2022/11/26 03:13:53;;;;;;;14.48;4.47;;;5.00;99.90;;;;;;5051613;28;20090;-70
2022/11/26 03:16:18;;;;;;;9.20;4.72;;;4.90;99.90;;;;;;5064361;28;20029;-70
2022/11/26 03:18:44;;;;;;;11.77;4.70;;;4.90;99.90;;;;;;5046807;28;20420;-70
2022/11/26 03:21:09;;;;;;;9.50;4.55;;;4.90;99.90;;;;;;5052786;28;20037;-70
2022/11/26 03:23:35;;;;;;;10.00;4.38;;;4.90;99.90;;;;;;5051600;28;20052;-70
2022/11/26 03:26:00;;;;;;;10.35;4.57;;;5.00;99.90;;;;;;5035767;28;20041;-70
2022/11/26 03:28:26;;;;;;;9.75;4.53;;;4.90;99.90;;;;;;5055052;28;20409;-70
2022/11/26 03:30:52;;;;;;;8.45;4.40;;;4.90;99.90;;;;;;5061757;28;20076;-70
2022/11/26 03:33:18;;;;;;;9.38;4.85;;;4.90;99.90;;;;;;5050943;28;20060;-70
2022/11/26 03:35:44;;;;;;;9.02;4.15;;;4.90;99.90;;;;;;5061285;28;20545;-70
2022/11/26 03:38:09;;;;;;;9.23;4.68;;;4.90;99.90;;;;;;5057721;28;20492;-71
2022/11/26 03:40:35;;;;;;;8.25;4.60;;;4.90;99.90;;;;;;5054499;28;20420;-70
2022/11/26 03:43:01;;;;;;;11.13;4.93;;;4.90;99.90;;;;;;5069108;28;20044;-70
2022/11/26 03:45:26;;;;;;;10.13;4.72;;;4.90;99.90;;;;;;5040351;28;20041;-70
2022/11/26 03:47:52;;;;;;;10.75;4.60;;;4.90;99.90;;;;;;5065788;28;20037;-70
2022/11/26 03:50:17;;;;;;;11.02;4.25;;;4.90;99.90;;;;;;5049477;28;20032;-70
2022/11/26 03:52:43;;;;;;;8.30;4.57;;;4.90;99.90;;;;;;5066290;28;20409;-70
2022/11/26 03:55:09;;;;;;;8.75;4.60;;;4.80;99.90;;;;;;5050729;28;20072;-70
2022/11/26 03:57:35;;;;;;;12.05;4.90;;;4.90;99.90;;;;;;5035562;28;20599;-70
2022/11/26 04:00:00;;;;;;;12.23;4.60;;;4.80;99.90;;;;;;5050966;28;20405;-70
2022/11/26 04:02:27;;;;;;;9.68;4.50;;;4.80;99.90;;;;;;5034629;28;20120;-70
2022/11/26 04:04:52;;;;;;;12.75;4.20;;;4.80;99.90;;;;;;5060390;28;20094;-70
2022/11/26 04:07:18;;;;;;;13.70;4.90;;;4.80;99.90;;;;;;5044596;28;20033;-70
2022/11/26 04:09:43;;;;;;;10.27;4.95;;;4.80;99.90;;;;;;5034115;28;20116;-70
2022/11/26 04:12:09;;;;;;;10.55;4.78;;;4.90;99.90;;;;;;5051989;28;20043;-70
2022/11/26 04:14:34;;;;;;;12.45;5.15;;;4.90;99.90;;;;;;5037164;28;20036;-70
2022/11/26 04:17:00;;;;;;;12.43;5.20;;;4.90;99.90;;;;;;5068033;28;20447;-70
2022/11/26 04:19:26;;;;;;;11.00;4.95;;;4.90;99.90;;;;;;5050113;28;20536;-70
2022/11/26 04:21:51;;;;;;;13.80;5.40;;;4.90;99.90;;;;;;5035439;28;20048;-70
2022/11/26 04:24:17;;;;;;;10.18;5.40;;;4.80;99.90;;;;;;5050119;28;20075;-70
2022/11/26 04:26:42;;;;;;;14.38;5.28;;;4.90;99.90;;;;;;5051810;28;20493;-70
2022/11/26 04:29:08;;;;;;;14.00;5.55;;;4.90;99.90;;;;;;5050942;28;20025;-70
2022/11/26 04:31:33;;;;;;;15.30;6.20;;;4.90;99.90;;;;;;5047255;28;20035;-70
2022/11/26 04:33:59;;;;;;;12.88;6.28;;;5.00;99.90;;;;;;5046580;28;20047;-70
2022/11/26 04:36:24;;;;;;;12.02;5.68;;;5.00;99.90;;;;;;5052882;28;20036;-70
2022/11/26 04:38:50;;;;;;;13.63;6.32;;;5.00;99.90;;;;;;5059310;28;20038;-70
2022/11/26 04:41:16;;;;;;;13.82;5.65;;;5.10;99.90;;;;;;5051615;28;20406;-70
2022/11/26 04:43:41;;;;;;;16.85;6.63;;;5.10;99.90;;;;;;5060267;28;20411;-70
2022/11/26 04:46:07;;;;;;;10.80;5.85;;;5.10;99.90;;;;;;5036245;28;20045;-70
2022/11/26 04:48:32;;;;;;;13.85;6.10;;;5.10;99.90;;;;;;5043435;28;20076;-70
2022/11/26 04:50:58;;;;;;;13.25;5.85;;;5.10;99.90;;;;;;5054774;28;20040;-70
2022/11/26 04:53:24;;;;;;;16.27;5.93;;;5.10;99.90;;;;;;5067537;28;20033;-70
2022/11/26 04:55:50;;;;;;;14.25;5.53;;;5.10;99.90;;;;;;5055587;28;20029;-70
2022/11/26 04:58:17;;;;;;;14.20;5.78;;;5.10;99.90;;;;;;5035216;28;20394;-70
2022/11/26 05:00:43;;;;;;;14.18;6.03;;;5.10;99.90;;;;;;5054513;28;20041;-70
2022/11/26 05:03:09;;;;;;;11.98;6.00;;;5.10;99.90;;;;;;5033757;28;20049;-70
2022/11/26 05:05:35;;;;;;;11.07;5.75;;;5.10;99.90;;;;;;5060932;28;20043;-70
2022/11/26 05:08:00;;;;;;;13.18;5.57;;;5.10;99.90;;;;;;5049709;28;20052;-70
2022/11/26 05:10:26;;;;;;;14.95;6.00;;;5.10;99.90;;;;;;5050317;28;20029;-70
2022/11/26 05:12:52;;;;;;;11.10;5.65;;;5.10;99.90;;;;;;5050262;28;20476;-70
2022/11/26 05:15:17;;;;;;;11.18;5.30;;;5.10;99.90;;;;;;5064187;28;20489;-70
2022/11/26 05:17:43;;;;;;;9.02;4.70;;;5.20;99.90;;;;;;5033696;28;20040;-70
2022/11/26 05:20:09;;;;;;;12.52;5.63;;;5.20;99.90;;;;;;5060423;28;20091;-70
2022/11/26 05:22:35;;;;;;;13.63;5.57;;;5.20;99.90;;;;;;5054378;28;20037;-70
2022/11/26 05:25:00;;;;;;;10.70;5.63;;;5.20;99.90;;;;;;5038170;28;20504;-70
2022/11/26 05:27:26;;;;;;;14.30;5.35;;;5.20;99.90;;;;;;5058491;28;20028;-71
2022/11/26 05:29:52;;;;;;;11.65;5.60;;;5.20;99.90;;;;;;5073829;28;20033;-70
2022/11/26 05:32:17;;;;;;;15.63;5.97;;;5.20;99.90;;;;;;5062979;28;20069;-70
2022/11/26 05:34:43;;;;;;;10.60;5.70;;;5.20;99.90;;;;;;5057663;28;20040;-70
2022/11/26 05:37:08;;;;;;;13.13;5.82;;;5.20;99.90;;;;;;5065281;28;20124;-70
2022/11/26 05:39:34;;;;;;;11.50;5.07;;;5.20;99.90;;;;;;5045829;28;20542;-71
2022/11/26 05:42:00;;;;;;;13.82;5.57;;;5.10;99.90;;;;;;5042907;28;20042;-70
2022/11/26 05:44:26;;;;;;;10.52;5.25;;;5.10;99.90;;;;;;5035104;28;20457;-71
2022/11/26 05:46:51;;;;;;;12.48;5.70;;;5.10;99.90;;;;;;5067624;28;20105;-70
2022/11/26 05:49:17;;;;;;;12.52;5.72;;;5.10;99.90;;;;;;5035694;28;20110;-70
2022/11/26 05:51:42;;;;;;;13.68;6.22;;;5.10;99.90;;;;;;5046598;28;20182;-70
2022/11/26 05:54:12;;;;;;;15.43;6.70;;;5.10;99.90;;;;;;5045946;28;20048;-70
2022/11/26 05:56:38;;;;;;;16.80;6.68;;;5.20;99.90;;;;;;5043661;28;20086;-70
2022/11/26 05:59:04;;;;;;;14.48;6.35;;;5.20;99.90;;;;;;5036735;28;20128;-70
2022/11/26 06:01:29;;;;;;;14.10;6.03;;;5.20;99.90;;;;;;5057368;28;20044;-70
2022/11/26 06:03:55;;;;;;;15.75;6.85;;;5.20;99.90;;;;;;5049468;28;20053;-70
2022/11/26 06:06:20;;;;;;;14.50;6.45;;;5.10;99.90;;;;;;5055894;28;20429;-70
2022/11/26 06:08:46;;;;;;;13.02;6.72;;;5.10;99.90;;;;;;5050783;28;20039;-70
2022/11/26 06:11:12;;;;;;;12.20;6.25;;;5.20;99.90;;;;;;5062879;28;20067;-70
2022/11/26 06:13:38;;;;;;;12.95;6.15;;;5.20;99.90;;;;;;5026786;28;20067;-70
2022/11/26 06:16:04;;;;;;;12.48;6.35;;;5.20;99.90;;;;;;5063327;28;20044;-70
2022/11/26 06:18:29;;;;;;;12.40;7.13;;;5.10;99.90;;;;;;5067467;28;20047;-70
2022/11/26 06:20:59;;;;;;;11.15;6.43;;;5.10;99.90;;;;;;5043005;28;20033;-70
2022/11/26 06:23:25;;;;;;;12.20;6.80;;;5.10;99.90;;;;;;5031839;28;20044;-70
2022/11/26 06:25:51;;;;;;;13.40;7.32;;;5.10;99.90;;;;;;5055245;28;20449;-70
2022/11/26 06:28:16;;;;;;;14.13;6.95;;;5.10;99.90;;;;;;5049250;28;20041;-70
2022/11/26 06:30:44;;;;;;;12.85;7.43;;;5.10;99.90;;;;;;5068682;28;20090;-70
2022/11/26 06:33:09;;;;;;;13.35;7.07;;;5.10;99.90;;;;;;5036242;28;20083;-70
2022/11/26 06:35:35;;;;;;;14.57;7.65;;;5.10;99.90;;;;;;5053711;28;20045;-70
2022/11/26 06:38:00;;;;;;;13.65;6.78;;;5.10;99.90;;;;;;5046414;28;20183;-70
2022/11/26 06:40:26;;;;;;;12.98;7.65;;;5.10;99.90;;;;;;5038682;28;20040;-70
2022/11/26 06:42:52;;;;;;;13.82;7.72;;;5.10;99.90;;;;;;5064407;28;20066;-70
2022/11/26 06:45:22;;;;;;;12.45;7.10;;;5.10;99.90;;;;;;5052701;28;20051;-70
2022/11/26 06:47:49;;;;;;;13.07;7.20;;;5.10;99.90;;;;;;5039391;28;20041;-70
2022/11/26 06:50:17;;;;;;;12.43;7.22;;;5.20;99.90;;;;;;5053640;28;20048;-70
2022/11/26 06:52:43;;;;;;;13.27;7.72;;;5.20;99.90;;;;;;5061933;28;20076;-71
2022/11/26 06:55:08;;;;;;;14.07;7.25;;;5.20;99.90;;;;;;5055265;28;20080;-70
2022/11/26 06:57:34;;;;;;;14.70;7.32;;;5.20;99.90;;;;;;5040653;28;20052;-70
2022/11/26 07:00:00;;;;;;;14.68;8.50;;;5.20;99.90;;;;;;5044543;28;20029;-70
2022/11/26 07:02:26;;;;;;;14.35;8.27;;;5.20;99.90;;;;;;5041193;28;20142;-70
2022/11/26 07:04:51;;;;;;;16.10;7.47;;;5.20;99.90;;;;;;5028810;28;20053;-70
2022/11/26 07:07:17;;;;;;;12.05;7.60;;;5.30;99.90;;;;;;5071863;28;20032;-70
2022/11/26 07:09:42;;;;;;;13.68;8.20;;;5.30;99.90;;;;;;5052747;28;20119;-70
2022/11/26 07:12:08;;;;;;;11.55;7.30;;;5.30;99.90;;;;;;5072836;28;20028;-70
2022/11/26 07:14:34;;;;;;;12.55;7.78;;;5.30;99.90;;;;;;5068967;28;20405;-71
2022/11/26 07:16:59;;;;;;;13.18;8.40;;;5.30;99.90;;;;;;5072844;28;20045;-70
2022/11/26 07:19:25;;;;;;;16.45;8.27;;;5.30;99.90;;;;;;5070473;28;20044;-70
2022/11/26 07:21:51;;;;;;;13.05;8.40;;;5.20;99.90;;;;;;5068674;28;20032;-70
2022/11/26 07:24:16;;;;;;;12.43;7.78;;;5.20;99.90;;;;;;5051820;28;20421;-70
2022/11/26 07:26:42;;;;;;;14.27;8.15;;;5.20;99.90;;;;;;5055739;28;20037;-70
2022/11/26 07:29:08;;;;;;;13.63;8.10;;;5.10;99.90;;;;;;5072879;28;20055;-70
2022/11/26 07:31:35;;;;;;;12.50;8.00;;;5.10;99.90;;;;;;5037628;28;20036;-70
2022/11/26 07:34:00;;;;;;;14.15;8.52;;;5.20;99.90;;;;;;5035888;28;20128;-70
2022/11/26 07:36:28;;;;;;;14.63;8.07;;;5.20;99.90;;;;;;5052403;28;20124;-70
2022/11/26 07:38:59;;;;;;;13.43;9.02;;;5.20;99.90;;;;;;5035108;28;20029;-70
2022/11/26 07:41:26;;;;;;;14.70;8.13;;;5.20;99.90;;;;;;5051654;28;20080;-69
2022/11/26 07:43:52;;;;;;;14.18;8.07;;;5.20;99.90;;;;;;5052324;28;20040;-69
2022/11/26 07:46:20;;;;;;;15.52;8.40;;;5.20;99.90;;;;;;5042844;28;20131;-70
2022/11/26 07:48:46;;;;;;;14.65;8.63;;;5.20;99.90;;;;;;5035724;28;20037;-70
2022/11/26 07:51:31;;;;;;;14.77;8.35;;;5.20;99.90;;;;;;5052526;28;20045;-70
2022/11/26 07:53:58;;;;;;;15.70;8.82;;;5.30;99.90;;;;;;5035177;28;20505;-70
2022/11/26 07:56:24;;;;;;;13.90;7.97;;;5.20;99.90;;;;;;5052223;28;20048;-70
2022/11/26 07:58:50;;;;;;;16.27;9.45;;;5.20;99.90;;;;;;5056253;28;20048;-69
2022/11/26 08:01:19;;;;;;;16.50;9.90;;;5.20;99.90;;;;;;5057180;28;20032;-70
2022/11/26 08:03:47;;;;;;;17.52;9.60;;;5.30;99.90;;;;;;5063998;28;20073;-70
2022/11/26 08:06:15;;;;;;;18.77;10.15;;;5.40;99.90;;;;;;5071926;28;20044;-69
2022/11/26 08:08:41;;;;;;;19.50;9.60;;;5.50;99.90;;;;;;5050333;28;20072;-69
2022/11/26 08:11:33;;;;;;;17.92;9.82;;;5.70;99.90;;;;;;5051849;28;20040;-70
2022/11/26 08:14:08;;;;;;;14.65;10.15;;;5.70;99.90;;;;;;5038700;28;20080;-70
2022/11/26 08:16:34;;;;;;;14.68;9.02;;;5.80;99.90;;;;;;5051557;28;20496;-70
2022/11/26 08:19:03;;;;;;;18.52;9.43;;;5.90;99.90;;;;;;5039108;28;20048;-70
2022/11/26 08:21:29;;;;;;;18.80;9.73;;;6.00;99.90;;;;;;5036619;28;20041;-69
2022/11/26 08:23:55;;;;;;;16.65;9.30;;;6.00;99.90;;;;;;5034108;28;20041;-70
2022/11/26 08:26:22;;;;;;;17.52;10.30;;;6.10;99.90;;;;;;5034757;28;20155;-70
2022/11/26 08:28:47;;;;;;;13.30;8.10;;;6.10;99.90;;;;;;5049622;28;20044;-69
2022/11/26 08:31:15;;;;;;;17.55;8.45;;;6.10;99.90;;;;;;5051355;28;20037;-70
2022/11/26 08:33:41;;;;;;;17.25;8.85;;;6.10;99.90;;;;;;5041179;28;20037;-70
2022/11/26 08:36:08;;;;;;;13.07;8.43;;;6.10;99.90;;;;;;5048887;28;20044;-69
2022/11/26 08:38:34;;;;;;;21.25;9.00;;;6.20;99.90;;;;;;5049906;28;20037;-70
2022/11/26 08:41:06;;;;;;;16.17;8.60;;;6.30;99.90;;;;;;5051313;28;20396;-69
2022/11/26 08:43:34;;;;;;;17.23;8.15;;;6.30;99.90;;;;;;5051367;28;20237;-70
2022/11/26 08:46:00;;;;;;;15.05;7.95;;;6.40;99.90;;;;;;5054325;28;20119;-70
2022/11/26 08:48:27;;;;;;;17.00;8.45;;;6.50;99.90;;;;;;5034122;28;20100;-70
2022/11/26 08:51:01;;;;;;;15.60;7.47;;;6.60;99.90;;;;;;5052793;28;20044;-69
2022/11/26 08:53:28;;;;;;;18.25;8.00;;;6.70;99.90;;;;;;5069264;28;20039;-70
2022/11/26 08:56:00;;;;;;;14.13;7.07;;;6.70;99.90;;;;;;5071340;28;20044;-70
2022/11/26 08:58:26;;;;;;;15.90;7.78;;;6.80;99.90;;;;;;5018908;28;20440;-70
2022/11/26 09:00:52;;;;;;;17.20;7.90;;;6.90;99.90;;;;;;5053065;28;20071;-70
2022/11/26 09:03:17;;;;;;;15.20;7.63;;;6.80;99.90;;;;;;5043647;28;20082;-70
2022/11/26 09:05:43;;;;;;;16.00;7.57;;;6.90;99.90;;;;;;5049498;28;20041;-70
2022/11/26 09:08:08;;;;;;;16.63;7.13;;;6.90;99.90;;;;;;5073578;28;20451;-70
2022/11/26 09:10:34;;;;;;;18.25;7.70;;;6.90;99.90;;;;;;5075298;28;20124;-70
2022/11/26 09:12:59;;;;;;;18.58;7.38;;;6.90;99.90;;;;;;5058213;28;20040;-70
2022/11/26 09:15:25;;;;;;;15.27;7.25;;;6.90;99.90;;;;;;5047058;28;20191;-70
2022/11/26 09:17:50;;;;;;;14.63;7.63;;;6.90;99.90;;;;;;5055542;28;20045;-70
2022/11/26 09:20:16;;;;;;;17.33;6.90;;;6.90;99.90;;;;;;5037972;28;20489;-70
2022/11/26 09:22:42;;;;;;;15.73;7.60;;;6.90;99.90;;;;;;5053605;28;20040;-70
2022/11/26 09:25:08;;;;;;;20.10;7.65;;;6.90;99.90;;;;;;5054940;28;20124;-70
2022/11/26 09:27:34;;;;;;;19.00;7.50;;;6.90;99.90;;;;;;5038103;28;20497;-70
2022/11/26 09:29:59;;;;;;;18.80;7.45;;;6.90;99.90;;;;;;5054558;28;20119;-70
2022/11/26 09:32:25;;;;;;;16.95;7.50;;;6.90;99.90;;;;;;5038220;28;20128;-70
2022/11/26 09:34:51;;;;;;;17.83;7.97;;;6.90;99.90;;;;;;5036348;28;20115;-70
2022/11/26 09:37:17;;;;;;;16.88;7.85;;;6.90;99.90;;;;;;5051570;28;20069;-70
2022/11/26 09:39:43;;;;;;;21.77;7.60;;;7.00;99.90;;;;;;5054309;28;20041;-70
2022/11/26 09:42:35;;;;;;;17.17;7.78;;;7.00;99.90;;;;;;5037630;28;20052;-70
2022/11/26 09:45:14;;;;;;;;;;;7.10;99.90;;;;;;5055065;28;20052;-70
2022/11/26 09:47:44;;;;;;;17.10;7.45;;;7.10;99.90;;;;;;5037843;28;20471;-70
2022/11/26 09:50:10;;;;;;;17.98;8.23;;;7.10;99.90;;;;;;5053919;28;20037;-70
2022/11/26 09:52:44;;;;;;;19.17;8.00;;;7.10;99.90;;;;;;5037363;28;20179;-70
2022/11/26 09:55:29;;;;;;;22.67;8.88;;;7.20;99.90;;;;;;5054053;28;20501;-70
2022/11/26 09:58:26;;;;;;;18.48;8.68;;;7.20;99.90;;;;;;5054434;28;20044;-70
2022/11/26 10:00:54;;;;;;;15.75;7.30;;;7.30;99.90;;;;;;5058388;28;20052;-70
2022/11/26 10:03:24;;;;;;;22.27;8.77;;;7.30;99.90;;;;;;5062255;28;20080;-70
2022/11/26 10:06:17;;;;;;;15.80;8.43;;;7.40;99.90;;;;;;5068820;28;20106;-70
2022/11/26 10:09:10;;;;;;;17.52;8.10;;;7.40;99.90;;;;;;5055008;28;20040;-70
2022/11/26 10:11:57;;;;;;;18.70;8.95;;;7.60;99.90;;;;;;5071309;28;20036;-70
2022/11/26 10:14:45;;;;;;;21.27;8.13;;;7.70;99.90;;;;;;5061780;28;20135;-70
2022/11/26 10:17:29;;;;;;;18.38;8.32;;;7.80;99.90;;;;;;5055094;28;20141;-70
2022/11/26 10:20:13;;;;;;;21.17;8.15;;;7.80;99.90;;;;;;5064360;28;20575;-70
2022/11/26 10:22:57;;;;;;;16.60;8.43;;;7.90;99.90;;;;;;5046499;28;20075;-70
2022/11/26 10:25:27;;;;;;;17.20;8.45;;;7.90;99.90;;;;;;5057942;28;20040;-70
2022/11/26 10:27:55;;;;;;;18.83;9.00;;;7.90;99.90;;;;;;5035262;28;20045;-70
2022/11/26 10:30:23;;;;;;;20.52;9.98;;;8.00;99.90;;;;;;5033743;28;20528;-70
2022/11/26 10:32:50;;;;;;;23.30;9.93;;;8.00;99.90;;;;;;5036657;28;20037;-70
2022/11/26 10:35:22;;;;;;;20.33;9.75;;;8.00;99.90;;;;;;5036200;28;20044;-70
2022/11/26 10:37:48;;;;;;;19.27;9.15;;;8.10;99.90;;;;;;5051018;28;20041;-70
2022/11/26 10:40:20;;;;;;;16.98;9.63;;;8.10;99.90;;;;;;5034386;28;20044;-70
2022/11/26 10:43:04;;;;;;;18.42;9.30;;;8.10;99.90;;;;;;5050375;28;20120;-70
2022/11/26 10:45:42;;;;;;;20.40;10.43;;;8.20;99.90;;;;;;5053329;28;20099;-70
2022/11/26 10:48:18;;;;;;;20.10;10.48;;;8.20;99.90;;;;;;5056073;28;20571;-70
2022/11/26 10:51:01;;;;;;;19.17;9.70;;;8.20;99.90;;;;;;5047371;28;20036;-70
2022/11/26 10:53:28;;;;;;;25.55;10.20;;;8.30;99.90;;;;;;5051831;28;20033;-70
2022/11/26 10:55:59;;;;;;;18.90;12.13;;;8.30;99.90;;;;;;5059258;28;20040;-70
2022/11/26 10:58:39;;;;;;;22.30;10.68;;;8.30;99.90;;;;;;5066096;28;20091;-70
2022/11/26 11:01:06;;;;;;;24.13;11.48;;;8.40;99.90;;;;;;5053014;28;20148;-70
2022/11/26 11:03:37;;;;;;;21.15;11.52;;;8.40;99.90;;;;;;5052942;28;20128;-70
2022/11/26 11:06:17;;;;;;;22.50;11.45;;;8.40;99.90;;;;;;5052647;28;20045;-70
2022/11/26 11:08:43;;;;;;;19.90;11.15;;;8.40;99.90;;;;;;5052721;28;20072;-70
2022/11/26 11:11:25;;;;;;;20.00;12.00;;;8.40;99.90;;;;;;5053223;28;20041;-70
2022/11/26 11:13:51;;;;;;;20.00;11.30;;;8.40;99.90;;;;;;5052572;28;20072;-70
2022/11/26 11:16:30;;;;;;;23.98;12.40;;;8.40;99.90;;;;;;5052214;28;20048;-70
2022/11/26 11:18:59;;;;;;;21.75;11.65;;;8.40;99.90;;;;;;5051203;28;20041;-70
2022/11/26 11:21:33;;;;;;;23.85;13.02;;;8.40;99.90;;;;;;5029873;28;20037;-70
2022/11/26 11:24:13;;;;;;;21.70;11.57;;;8.40;99.90;;;;;;5032500;28;20034;-70
2022/11/26 11:26:42;;;;;;;28.50;11.98;;;8.40;99.90;;;;;;5048419;28;20432;-70
2022/11/26 11:29:28;;;;;;;23.25;11.88;;;8.40;99.90;;;;;;5052608;28;20048;-70
2022/11/26 11:31:59;;;;;;;19.83;11.15;;;8.50;99.90;;;;;;5052097;28;20436;-70
2022/11/26 11:34:38;;;;;;;24.23;13.55;;;8.50;99.90;;;;;;5035667;28;20099;-70
2022/11/26 11:37:16;;;;;;;22.15;13.25;;;8.40;99.90;;;;;;5035947;28;20094;-70
2022/11/26 11:39:42;;;;;;;25.00;14.38;;;8.50;99.90;;;;;;5052022;28;20095;-70
2022/11/26 11:42:27;;;;;;;27.10;15.38;;;8.50;99.90;;;;;;5035357;28;20429;-70
2022/11/26 11:44:53;;;;;;;29.00;16.90;;;8.50;99.90;;;;;;5035762;28;20041;-70
2022/11/26 11:47:33;;;;;;;25.95;15.88;;;8.50;99.90;;;;;;5051692;28;20033;-70
2022/11/26 11:50:17;;;;;;;31.48;16.60;;;8.60;99.90;;;;;;5051593;28;20036;-70
2022/11/26 11:53:02;;;;;;;29.30;16.23;;;8.50;99.90;;;;;;5035257;28;20044;-70
2022/11/26 11:56:08;;;;;;;27.42;16.13;;;8.60;99.90;;;;;;5063602;28;20560;-70
2022/11/26 11:59:00;;;;;;;29.38;16.35;;;8.60;99.90;;;;;;5031937;28;20052;-70
2022/11/26 12:02:00;;;;;;;29.00;17.25;;;8.60;99.90;;;;;;5000244;28;20053;-70
2022/11/26 12:05:14;;;;;;;28.17;16.98;;;8.60;99.90;;;;;;5047192;28;20501;-70
2022/11/26 12:07:55;;;;;;;35.53;17.80;;;8.60;99.90;;;;;;4981348;28;20067;-70
2022/11/26 12:10:39;;;;;;;30.90;17.77;;;8.70;99.90;;;;;;5051888;28;20067;-70
2022/11/26 12:13:08;;;;;;;32.53;17.27;;;8.60;99.90;;;;;;5037524;28;20052;-70
2022/11/26 12:15:50;;;;;;;34.45;18.88;;;8.60;99.90;;;;;;5032327;28;20508;-70
2022/11/26 12:18:30;;;;;;;34.53;17.85;;;8.60;99.90;;;;;;5040475;28;20040;-70
2022/11/26 12:21:12;;;;;;;35.30;17.42;;;8.60;99.90;;;;;;5035148;28;20485;-70
2022/11/26 12:24:12;;;;;;;28.95;17.90;;;8.60;99.90;;;;;;5051035;28;20444;-70
2022/11/26 12:27:09;;;;;;;33.85;18.77;;;8.60;99.90;;;;;;5020936;28;20048;-71
2022/11/26 12:29:41;;;;;;;37.22;19.05;;;8.60;99.90;;;;;;5051018;28;20037;-71
2022/11/26 12:32:35;;;;;;;35.50;18.50;;;8.60;99.90;;;;;;5034452;28;20052;-70
2022/11/26 12:35:06;;;;;;;31.67;17.70;;;8.60;99.90;;;;;;5051773;28;20033;-70
2022/11/26 12:37:55;;;;;;;31.17;18.60;;;8.60;99.90;;;;;;5035037;28;20041;-70
2022/11/26 12:40:36;;;;;;;31.45;17.85;;;8.60;99.90;;;;;;5049976;28;20057;-70
2022/11/26 12:43:16;;;;;;;30.90;17.83;;;8.70;99.90;;;;;;5051067;28;20501;-71
2022/11/26 12:45:59;;;;;;;33.60;17.95;;;8.70;99.90;;;;;;5049927;28;20045;-70
2022/11/26 12:48:55;;;;;;;34.95;18.80;;;8.70;99.90;;;;;;5034431;28;20044;-70
2022/11/26 12:51:21;;;;;;;33.40;17.08;;;8.70;99.90;;;;;;5033779;28;20037;-70
2022/11/26 12:54:13;;;;;;;32.33;18.13;;;8.70;99.90;;;;;;5031461;28;20049;-70
2022/11/26 12:56:52;;;;;;;36.67;17.80;;;8.70;99.90;;;;;;5036434;28;20102;-70
2022/11/26 12:59:22;;;;;;;34.35;16.88;;;8.80;99.90;;;;;;5050178;28;20044;-71
2022/11/26 13:01:47;;;;;;;27.98;16.25;;;8.70;99.90;;;;;;5049744;28;20552;-70
2022/11/26 13:04:14;;;;;;;30.13;16.67;;;8.80;99.90;;;;;;5031515;28;20133;-70